createdAt,value
2017-05-10T00:00:36.207Z,0.6
2017-05-10T00:01:54.844Z,0.6
2017-05-10T00:03:13.527Z,0.7
2017-05-10T00:04:32.160Z,0.8
2017-05-10T00:05:50.796Z,0.9
2017-05-10T00:07:09.439Z,1
2017-05-10T00:08:28.086Z,1.1
2017-05-10T00:09:46.732Z,1.2
2017-05-10T00:11:05.364Z,1.2
2017-05-10T00:12:24.005Z,1.2
2017-05-10T00:13:42.666Z,1.3
2017-05-10T00:15:01.324Z,1.3
2017-05-10T00:16:20.013Z,1.4
2017-05-10T00:17:38.702Z,1.4
2017-05-10T00:18:57.339Z,1.4
2017-05-10T00:20:15.971Z,1.4
2017-05-10T00:21:34.642Z,1.3
2017-05-10T00:22:53.279Z,1.3
2017-05-10T00:24:11.924Z,1.2
2017-05-10T00:25:30.614Z,1.2
2017-05-10T00:26:49.254Z,1.1
2017-05-10T00:28:07.925Z,1.1
2017-05-10T00:29:26.556Z,1.2
2017-05-10T00:30:45.241Z,1.3
2017-05-10T00:32:03.871Z,1.4
2017-05-10T00:33:22.528Z,1.5
2017-05-10T00:34:41.214Z,1.6
2017-05-10T00:35:59.848Z,1.7
2017-05-10T00:37:18.530Z,1.7
2017-05-10T00:38:37.159Z,1.8
2017-05-10T00:39:55.796Z,1.9
2017-05-10T00:41:14.429Z,1.9
2017-05-10T00:42:33.101Z,1.9
2017-05-10T00:43:51.786Z,2
2017-05-10T00:45:10.422Z,2
2017-05-10T00:46:29.082Z,2
2017-05-10T00:47:47.741Z,2
2017-05-10T00:49:06.424Z,2
2017-05-10T00:50:25.058Z,2
2017-05-10T00:51:43.692Z,2
2017-05-10T00:53:02.384Z,2
2017-05-10T00:54:21.034Z,2
2017-05-10T00:55:39.670Z,2.1
2017-05-10T00:56:58.304Z,2.1
2017-05-10T00:58:16.934Z,2.1
2017-05-10T00:59:35.619Z,2.1
2017-05-10T01:00:54.252Z,2.1
2017-05-10T01:02:12.891Z,2.1
2017-05-10T01:03:31.525Z,2.1
2017-05-10T01:04:50.163Z,2.1
2017-05-10T01:06:08.860Z,2.1
2017-05-10T01:07:27.522Z,2.1
2017-05-10T01:08:46.157Z,2.2
2017-05-10T01:10:04.793Z,2.2
2017-05-10T01:11:23.432Z,2.1
2017-05-10T01:12:42.061Z,2.1
2017-05-10T01:14:00.713Z,2.1
2017-05-10T01:15:19.400Z,2
2017-05-10T01:16:38.029Z,2.1
2017-05-10T01:17:56.689Z,2.1
2017-05-10T01:19:15.328Z,2.1
2017-05-10T01:20:33.968Z,2.1
2017-05-10T01:21:52.618Z,2.1
2017-05-10T01:23:11.301Z,2.1
2017-05-10T01:24:29.937Z,2.1
2017-05-10T01:25:48.573Z,2.2
2017-05-10T01:27:07.221Z,2.2
2017-05-10T01:28:25.870Z,2.2
2017-05-10T01:29:44.503Z,2.2
2017-05-10T01:31:03.182Z,2.2
2017-05-10T01:32:21.875Z,2.1
2017-05-10T01:33:40.520Z,2.1
2017-05-10T01:34:59.155Z,2.1
2017-05-10T01:36:17.792Z,2.1
2017-05-10T01:37:36.419Z,2.1
2017-05-10T01:38:55.050Z,2.1
2017-05-10T01:40:13.711Z,2.1
2017-05-10T01:41:32.427Z,2.1
2017-05-10T01:42:51.051Z,2.1
2017-05-10T01:44:09.697Z,2.2
2017-05-10T01:45:28.342Z,2.2
2017-05-10T01:46:47.002Z,2.2
2017-05-10T01:48:05.696Z,2.2
2017-05-10T01:49:24.372Z,2.2
2017-05-10T01:50:43.006Z,2.2
2017-05-10T01:52:01.650Z,2.2
2017-05-10T01:53:20.317Z,2.2
2017-05-10T01:54:38.955Z,2.2
2017-05-10T01:55:57.625Z,2.2
2017-05-10T01:57:16.261Z,2.2
2017-05-10T01:58:34.894Z,2.2
2017-05-10T01:59:53.578Z,2.2
2017-05-10T02:01:12.244Z,2.1
2017-05-10T02:02:30.879Z,2.1
2017-05-10T02:03:49.520Z,2.1
2017-05-10T02:05:08.178Z,2.1
2017-05-10T02:06:26.860Z,2.1
2017-05-10T02:07:45.504Z,2.1
2017-05-10T02:09:04.138Z,2.1
2017-05-10T02:10:22.777Z,2.1
2017-05-10T02:11:41.420Z,2.1
2017-05-10T02:13:00.059Z,2.2
2017-05-10T02:14:18.699Z,2.2
2017-05-10T02:15:37.358Z,2.2
2017-05-10T02:16:55.992Z,2.2
2017-05-10T02:18:14.631Z,2.2
2017-05-10T02:19:33.273Z,2.3
2017-05-10T02:20:51.917Z,2.3
2017-05-10T02:22:10.607Z,2.3
2017-05-10T02:23:29.249Z,2.4
2017-05-10T02:24:47.883Z,2.4
2017-05-10T02:26:06.513Z,2.4
2017-05-10T02:27:25.154Z,2.4
2017-05-10T02:28:43.793Z,2.3
2017-05-10T02:30:02.489Z,2.3
2017-05-10T02:31:21.132Z,2.2
2017-05-10T02:32:39.797Z,2.2
2017-05-10T02:33:58.487Z,2.1
2017-05-10T02:35:17.148Z,2
2017-05-10T02:36:35.816Z,1.9
2017-05-10T02:37:54.464Z,1.9
2017-05-10T02:39:13.098Z,1.9
2017-05-10T02:40:31.729Z,1.9
2017-05-10T02:41:50.372Z,1.8
2017-05-10T02:43:09.042Z,1.8
2017-05-10T02:44:27.681Z,1.8
2017-05-10T02:45:46.317Z,1.7
2017-05-10T02:47:04.975Z,1.7
2017-05-10T02:48:23.637Z,1.6
2017-05-10T02:49:42.272Z,1.5
2017-05-10T02:51:00.954Z,1.5
2017-05-10T02:52:19.613Z,1.4
2017-05-10T02:53:38.327Z,1.3
2017-05-10T02:54:56.987Z,1.3
2017-05-10T02:56:15.621Z,1.2
2017-05-10T02:57:34.306Z,1.1
2017-05-10T02:58:52.943Z,1.1
2017-05-10T03:00:11.621Z,1.1
2017-05-10T03:01:30.254Z,1
2017-05-10T03:02:48.881Z,0.9
2017-05-10T03:04:07.575Z,0.9
2017-05-10T03:05:26.202Z,0.8
2017-05-10T03:06:44.842Z,0.8
2017-05-10T03:08:03.526Z,0.8
2017-05-10T03:09:22.180Z,0.8
2017-05-10T03:10:40.866Z,0.7
2017-05-10T03:11:59.501Z,0.7
2017-05-10T03:13:18.131Z,0.7
2017-05-10T03:14:36.837Z,0.7
2017-05-10T03:15:55.510Z,0.7
2017-05-10T03:17:14.141Z,0.6
2017-05-10T03:18:32.772Z,0.6
2017-05-10T03:19:51.405Z,0.6
2017-05-10T03:21:10.032Z,0.6
2017-05-10T03:22:28.663Z,0.6
2017-05-10T03:23:47.329Z,0.6
2017-05-10T03:25:05.960Z,0.6
2017-05-10T03:26:24.632Z,0.6
2017-05-10T03:27:43.271Z,0.5
2017-05-10T03:29:01.934Z,0.5
2017-05-10T03:30:20.621Z,0.5
2017-05-10T03:31:39.258Z,0.5
2017-05-10T03:32:57.892Z,0.5
2017-05-10T03:34:16.519Z,0.5
2017-05-10T03:35:35.149Z,0.5
2017-05-10T03:36:53.833Z,0.5
2017-05-10T03:38:12.518Z,0.5
2017-05-10T03:39:31.182Z,0.5
2017-05-10T03:40:49.838Z,0.5
2017-05-10T03:42:08.469Z,0.5
2017-05-10T03:43:27.104Z,0.5
2017-05-10T03:44:45.743Z,0.5
2017-05-10T03:46:04.400Z,0.4
2017-05-10T03:47:23.047Z,0.4
2017-05-10T03:48:41.709Z,0.4
2017-05-10T03:50:00.352Z,0.4
2017-05-10T03:51:18.985Z,0.5
2017-05-10T03:52:37.624Z,0.5
2017-05-10T03:53:56.310Z,0.5
2017-05-10T03:55:14.997Z,0.5
2017-05-10T03:56:33.631Z,0.5
2017-05-10T03:57:52.267Z,0.5
2017-05-10T03:59:10.915Z,0.5
2017-05-10T04:00:29.543Z,0.6
2017-05-10T04:01:48.174Z,0.6
2017-05-10T04:03:06.834Z,0.6
2017-05-10T04:04:25.467Z,0.6
2017-05-10T04:05:44.114Z,0.7
2017-05-10T04:07:02.759Z,0.7
2017-05-10T04:08:21.394Z,0.7
2017-05-10T04:09:40.079Z,0.8
2017-05-10T04:10:58.783Z,0.8
2017-05-10T04:12:17.413Z,0.8
2017-05-10T04:13:36.085Z,0.8
2017-05-10T04:14:54.716Z,0.9
2017-05-10T04:16:13.399Z,0.9
2017-05-10T04:17:32.069Z,0.9
2017-05-10T04:18:50.702Z,0.9
2017-05-10T04:20:09.386Z,0.9
2017-05-10T04:21:28.084Z,0.9
2017-05-10T04:22:46.779Z,1
2017-05-10T04:24:05.466Z,1
2017-05-10T04:25:24.122Z,1.1
2017-05-10T04:26:42.831Z,1.2
2017-05-10T04:28:01.482Z,1.2
2017-05-10T04:29:20.159Z,1.2
2017-05-10T04:30:38.828Z,1.3
2017-05-10T04:31:57.459Z,1.4
2017-05-10T04:33:16.094Z,1.5
2017-05-10T04:34:34.727Z,1.6
2017-05-10T04:35:53.364Z,1.7
2017-05-10T04:37:12.013Z,1.7
2017-05-10T04:38:30.662Z,1.8
2017-05-10T04:39:49.293Z,1.9
2017-05-10T04:41:07.961Z,2
2017-05-10T04:42:26.659Z,2
2017-05-10T04:43:45.286Z,2.1
2017-05-10T04:45:03.949Z,2.1
2017-05-10T04:46:22.584Z,2.2
2017-05-10T04:47:41.222Z,2.3
2017-05-10T04:48:59.909Z,2.3
2017-05-10T04:50:18.589Z,2.4
2017-05-10T04:51:37.224Z,2.4
2017-05-10T04:52:55.911Z,2.4
2017-05-10T04:54:14.548Z,2.4
2017-05-10T04:55:33.183Z,2.4
2017-05-10T04:56:51.829Z,2.4
2017-05-10T04:58:10.484Z,2.5
2017-05-10T04:59:29.143Z,2.6
2017-05-10T05:00:47.777Z,2.6
2017-05-10T05:02:06.436Z,2.7
2017-05-10T05:03:25.081Z,2.7
2017-05-10T05:04:43.719Z,2.7
2017-05-10T05:06:02.406Z,2.8
2017-05-10T05:07:21.038Z,2.9
2017-05-10T05:08:39.673Z,3
2017-05-10T05:09:58.308Z,3
2017-05-10T05:11:16.937Z,3
2017-05-10T05:12:35.586Z,3
2017-05-10T05:13:54.299Z,3
2017-05-10T05:15:12.939Z,3.1
2017-05-10T05:16:31.602Z,3.2
2017-05-10T05:17:50.274Z,3.3
2017-05-10T05:19:08.908Z,3.3
2017-05-10T05:20:27.543Z,3.4
2017-05-10T05:21:46.187Z,3.5
2017-05-10T05:23:04.850Z,3.6
2017-05-10T05:24:23.480Z,3.7
2017-05-10T05:25:42.117Z,3.8
2017-05-10T05:27:00.782Z,3.9
2017-05-10T05:28:19.446Z,4.1
2017-05-10T05:29:38.087Z,4.2
2017-05-10T05:30:56.722Z,4.3
2017-05-10T05:32:15.414Z,4.3
2017-05-10T05:33:34.056Z,4.4
2017-05-10T05:34:52.723Z,4.5
2017-05-10T05:36:11.410Z,4.6
2017-05-10T05:37:30.077Z,4.8
2017-05-10T05:38:48.716Z,4.8
2017-05-10T05:40:07.396Z,4.9
2017-05-10T05:41:26.029Z,5
2017-05-10T05:42:44.721Z,5
2017-05-10T05:44:03.359Z,5.1
2017-05-10T05:45:22.038Z,5.1
2017-05-10T05:46:40.708Z,5.2
2017-05-10T05:47:59.365Z,5.3
2017-05-10T05:49:18.054Z,5.4
2017-05-10T05:50:36.690Z,5.5
2017-05-10T05:51:55.321Z,5.6
2017-05-10T05:53:13.961Z,5.7
2017-05-10T05:54:32.642Z,5.8
2017-05-10T05:55:51.302Z,5.9
2017-05-10T05:57:09.932Z,6.1
2017-05-10T05:58:28.637Z,6.2
2017-05-10T05:59:47.316Z,6.2
2017-05-10T06:01:06.015Z,6.3
2017-05-10T06:02:24.684Z,6.4
2017-05-10T06:03:43.381Z,6.5
2017-05-10T06:05:02.024Z,6.5
2017-05-10T06:06:20.657Z,6.5
2017-05-10T06:07:39.289Z,6.6
2017-05-10T06:08:57.922Z,6.7
2017-05-10T06:10:16.574Z,6.8
2017-05-10T06:11:35.209Z,6.9
2017-05-10T06:12:53.863Z,6.9
2017-05-10T06:14:12.585Z,6.8
2017-05-10T06:15:31.245Z,6.9
2017-05-10T06:16:49.883Z,7
2017-05-10T06:18:08.524Z,7.1
2017-05-10T06:19:27.227Z,7.2
2017-05-10T06:20:45.887Z,7.3
2017-05-10T06:22:04.597Z,7.4
2017-05-10T06:23:23.274Z,7.3
2017-05-10T06:24:41.943Z,7.4
2017-05-10T06:26:00.581Z,7.4
2017-05-10T06:27:19.211Z,7.4
2017-05-10T06:28:37.863Z,7.5
2017-05-10T06:29:56.572Z,7.5
2017-05-10T06:31:15.204Z,7.6
2017-05-10T06:32:33.880Z,7.6
2017-05-10T06:33:52.517Z,7.6
2017-05-10T06:35:11.238Z,7.7
2017-05-10T06:36:29.867Z,7.7
2017-05-10T06:37:48.499Z,7.8
2017-05-10T06:39:07.131Z,7.9
2017-05-10T06:40:25.816Z,8
2017-05-10T06:41:44.530Z,8
2017-05-10T06:43:03.165Z,8.1
2017-05-10T06:44:21.800Z,8.2
2017-05-10T06:45:40.436Z,8.3
2017-05-10T06:46:59.072Z,8.3
2017-05-10T06:48:17.740Z,8.3
2017-05-10T06:49:36.397Z,8.4
2017-05-10T06:50:55.034Z,8.5
2017-05-10T06:52:13.720Z,8.6
2017-05-10T06:53:32.393Z,8.6
2017-05-10T06:54:51.052Z,8.6
2017-05-10T06:56:09.681Z,8.6
2017-05-10T06:57:28.360Z,8.7
2017-05-10T06:58:46.994Z,8.8
2017-05-10T07:00:05.625Z,8.9
2017-05-10T07:01:24.262Z,9
2017-05-10T07:02:42.911Z,9
2017-05-10T07:04:01.578Z,9.1
2017-05-10T07:05:20.232Z,9.2
2017-05-10T07:06:38.898Z,9.2
2017-05-10T07:07:57.536Z,9.2
2017-05-10T07:09:16.173Z,9.3
2017-05-10T07:10:34.804Z,9.4
2017-05-10T07:11:53.442Z,9.5
2017-05-10T07:13:12.116Z,9.5
2017-05-10T07:14:30.775Z,9.6
2017-05-10T07:15:49.422Z,9.6
2017-05-10T07:17:08.056Z,9.8
2017-05-10T07:18:26.741Z,9.8
2017-05-10T07:19:45.408Z,9.8
2017-05-10T07:21:04.089Z,9.7
2017-05-10T07:22:22.783Z,9.7
2017-05-10T07:23:41.418Z,9.7
2017-05-10T07:25:00.051Z,9.7
2017-05-10T07:26:18.688Z,9.8
2017-05-10T07:27:37.322Z,9.9
2017-05-10T07:28:56.029Z,9.9
2017-05-10T07:30:14.685Z,10
2017-05-10T07:31:33.319Z,9.9
2017-05-10T07:32:51.959Z,9.8
2017-05-10T07:34:10.593Z,9.8
2017-05-10T07:35:29.312Z,9.9
2017-05-10T07:36:47.970Z,10
2017-05-10T07:38:06.608Z,9.8
2017-05-10T07:39:25.242Z,9.8
2017-05-10T07:40:43.882Z,9.9
2017-05-10T07:42:02.511Z,9.9
2017-05-10T07:43:21.161Z,10.1
2017-05-10T07:44:39.813Z,10.2
2017-05-10T07:45:58.488Z,10.2
2017-05-10T07:47:17.196Z,10.2
2017-05-10T07:48:35.912Z,10.2
2017-05-10T07:49:54.566Z,10.3
2017-05-10T07:51:13.277Z,10.4
2017-05-10T07:52:31.949Z,10.6
2017-05-10T07:53:50.607Z,10.7
2017-05-10T07:55:09.326Z,10.8
2017-05-10T07:56:28.014Z,10.9
2017-05-10T07:57:46.663Z,10.8
2017-05-10T07:59:05.310Z,10.8
2017-05-10T08:00:23.962Z,10.6
2017-05-10T08:01:42.666Z,10.6
2017-05-10T08:03:01.363Z,10.6
2017-05-10T08:04:20.047Z,10.6
2017-05-10T08:05:38.688Z,10.6
2017-05-10T08:06:57.360Z,10.7
2017-05-10T08:08:16.010Z,10.8
2017-05-10T08:09:34.660Z,10.9
2017-05-10T08:10:53.309Z,11
2017-05-10T08:12:11.972Z,11
2017-05-10T08:13:30.640Z,11.1
2017-05-10T08:14:49.300Z,11.2
2017-05-10T08:16:07.983Z,11.2
2017-05-10T08:17:26.630Z,11.3
2017-05-10T08:18:45.331Z,11.3
2017-05-10T08:20:04.041Z,11.5
2017-05-10T08:21:22.691Z,11.6
2017-05-10T08:22:41.351Z,11.7
2017-05-10T08:24:00.011Z,11.8
2017-05-10T08:25:18.661Z,11.8
2017-05-10T08:26:37.301Z,11.8
2017-05-10T08:27:55.997Z,11.7
2017-05-10T08:29:14.647Z,11.7
2017-05-10T08:30:33.295Z,11.7
2017-05-10T08:31:51.997Z,11.8
2017-05-10T08:33:10.672Z,11.8
2017-05-10T08:34:29.321Z,11.7
2017-05-10T08:35:47.971Z,11.7
2017-05-10T08:37:06.624Z,11.7
2017-05-10T08:38:25.334Z,11.8
2017-05-10T08:39:44.039Z,11.7
2017-05-10T08:41:02.696Z,11.8
2017-05-10T08:42:21.351Z,11.9
2017-05-10T08:43:39.995Z,11.8
2017-05-10T08:44:58.641Z,11.9
2017-05-10T08:46:17.290Z,11.9
2017-05-10T08:47:35.942Z,11.8
2017-05-10T08:48:54.593Z,11.9
2017-05-10T08:50:13.252Z,11.9
2017-05-10T08:51:31.916Z,11.9
2017-05-10T08:52:50.593Z,11.9
2017-05-10T08:54:09.315Z,11.9
2017-05-10T08:55:27.994Z,12
2017-05-10T08:56:46.646Z,12
2017-05-10T08:58:05.296Z,12.1
2017-05-10T08:59:23.980Z,12.2
2017-05-10T09:00:42.639Z,12.2
2017-05-10T09:02:01.291Z,12.1
2017-05-10T09:03:19.948Z,12.1
2017-05-10T09:04:38.598Z,12.2
2017-05-10T09:05:57.250Z,12.2
2017-05-10T09:07:15.902Z,12.3
2017-05-10T09:08:34.548Z,12.4
2017-05-10T09:09:53.233Z,12.4
2017-05-10T09:11:11.886Z,12.4
2017-05-10T09:12:30.563Z,12.5
2017-05-10T09:13:49.235Z,12.5
2017-05-10T09:15:07.936Z,12.6
2017-05-10T09:16:26.631Z,12.7
2017-05-10T09:17:45.301Z,12.6
2017-05-10T09:19:03.951Z,12.5
2017-05-10T09:20:22.602Z,12.6
2017-05-10T09:21:41.255Z,12.7
2017-05-10T09:22:59.962Z,12.8
2017-05-10T09:24:18.606Z,12.9
2017-05-10T09:25:37.263Z,13
2017-05-10T09:26:55.922Z,13.1
2017-05-10T09:28:14.570Z,13.2
2017-05-10T09:29:33.222Z,13.3
2017-05-10T09:30:51.869Z,13.4
2017-05-10T09:32:10.569Z,13.5
2017-05-10T09:33:29.240Z,13.4
2017-05-10T09:34:47.899Z,13.4
2017-05-10T09:36:06.549Z,13.5
2017-05-10T09:37:25.209Z,13.6
2017-05-10T09:38:43.913Z,13.6
2017-05-10T09:40:02.596Z,13.6
2017-05-10T09:41:21.271Z,13.7
2017-05-10T09:42:39.917Z,13.8
2017-05-10T09:43:58.584Z,14
2017-05-10T09:45:17.237Z,13.9
2017-05-10T09:46:35.904Z,13.9
2017-05-10T09:47:54.553Z,13.8
2017-05-10T09:49:13.208Z,13.9
2017-05-10T09:50:31.859Z,13.8
2017-05-10T09:51:50.545Z,13.7
2017-05-10T09:53:09.222Z,13.6
2017-05-10T09:54:27.923Z,13.5
2017-05-10T09:55:46.575Z,13.5
2017-05-10T09:57:05.276Z,13.5
2017-05-10T09:58:23.936Z,13.5
2017-05-10T09:59:42.646Z,13.5
2017-05-10T10:01:01.303Z,13.3
2017-05-10T10:02:19.959Z,13.4
2017-05-10T10:03:38.690Z,13.4
2017-05-10T10:04:57.345Z,13.4
2017-05-10T10:06:16.001Z,13.3
2017-05-10T10:07:34.659Z,13.4
2017-05-10T10:08:53.309Z,13.4
2017-05-10T10:10:11.962Z,13.4
2017-05-10T10:11:30.617Z,13.6
2017-05-10T10:12:49.296Z,13.6
2017-05-10T10:14:07.995Z,13.6
2017-05-10T10:15:26.643Z,13.5
2017-05-10T10:16:45.329Z,13.4
2017-05-10T10:18:03.985Z,13.4
2017-05-10T10:19:22.634Z,13.4
2017-05-10T10:20:41.337Z,13.4
2017-05-10T10:22:00.000Z,13.5
2017-05-10T10:23:18.709Z,13.6
2017-05-10T10:24:37.351Z,13.6
2017-05-10T10:25:55.997Z,13.7
2017-05-10T10:27:14.639Z,13.6
2017-05-10T10:28:33.352Z,13.5
2017-05-10T10:29:52.032Z,13.6
2017-05-10T10:31:10.689Z,13.5
2017-05-10T10:32:29.367Z,13.5
2017-05-10T10:33:48.021Z,13.6
2017-05-10T10:35:06.672Z,13.7
2017-05-10T10:36:25.362Z,13.8
2017-05-10T10:37:44.017Z,14
2017-05-10T10:39:02.675Z,14
2017-05-10T10:40:21.324Z,14.1
2017-05-10T10:41:39.996Z,14
2017-05-10T10:42:58.688Z,14
2017-05-10T10:44:17.363Z,13.9
2017-05-10T10:45:36.011Z,14
2017-05-10T10:46:54.672Z,14.1
2017-05-10T10:48:13.326Z,13.8
2017-05-10T10:49:32.012Z,13.8
2017-05-10T10:50:50.654Z,13.8
2017-05-10T10:52:09.304Z,13.8
2017-05-10T10:53:27.958Z,13.8
2017-05-10T10:54:46.608Z,13.9
2017-05-10T10:56:05.258Z,14
2017-05-10T10:57:23.947Z,14.1
2017-05-10T10:58:42.596Z,14.2
2017-05-10T11:00:01.247Z,14.3
2017-05-10T11:01:19.921Z,14.3
2017-05-10T11:02:38.575Z,14.1
2017-05-10T11:03:57.225Z,14
2017-05-10T11:05:15.875Z,14.2
2017-05-10T11:06:34.587Z,14.3
2017-05-10T11:07:53.289Z,14.3
2017-05-10T11:09:11.988Z,14.4
2017-05-10T11:10:30.636Z,14.5
2017-05-10T11:11:49.305Z,14.6
2017-05-10T11:13:07.955Z,14.8
2017-05-10T11:14:26.633Z,14.8
2017-05-10T11:15:45.356Z,14.7
2017-05-10T11:17:04.063Z,14.6
2017-05-10T11:18:22.766Z,14.5
2017-05-10T11:19:41.417Z,14.5
2017-05-10T11:21:00.117Z,14.5
2017-05-10T11:22:18.768Z,14.6
2017-05-10T11:23:37.413Z,14.8
2017-05-10T11:24:56.063Z,14.8
2017-05-10T11:26:14.718Z,14.8
2017-05-10T11:27:33.387Z,14.9
2017-05-10T11:28:52.037Z,14.9
2017-05-10T11:30:10.688Z,15
2017-05-10T11:31:29.342Z,15.2
2017-05-10T11:32:47.994Z,15.2
2017-05-10T11:34:06.651Z,15.2
2017-05-10T11:35:25.298Z,15.2
2017-05-10T11:36:43.980Z,15.3
2017-05-10T11:38:02.630Z,15.3
2017-05-10T11:39:21.279Z,15.3
2017-05-10T11:40:39.997Z,15.3
2017-05-10T11:41:58.658Z,15.5
2017-05-10T11:43:17.367Z,15.9
2017-05-10T11:44:36.012Z,16.5
2017-05-10T11:45:54.706Z,17.2
2017-05-10T11:47:13.409Z,18
2017-05-10T11:48:32.061Z,19.6
2017-05-10T11:49:50.721Z,23.3
2017-05-10T11:51:09.399Z,27.1
2017-05-10T11:52:28.097Z,30.5
2017-05-10T11:53:46.739Z,33.4
2017-05-10T11:55:05.394Z,34.5
2017-05-10T11:56:24.095Z,34.6
2017-05-10T11:57:42.790Z,34.7
2017-05-10T11:59:01.464Z,34.8
2017-05-10T12:00:20.117Z,34.9
2017-05-10T12:01:38.766Z,34.9
2017-05-10T12:02:57.442Z,35
2017-05-10T12:04:16.110Z,35.1
2017-05-10T12:05:34.793Z,35.1
2017-05-10T12:06:53.440Z,35.1
2017-05-10T12:08:12.086Z,35.1
2017-05-10T12:09:30.740Z,35.2
2017-05-10T12:10:49.443Z,35.3
2017-05-10T12:12:08.166Z,35.4
2017-05-10T12:13:26.834Z,35.6
2017-05-10T12:14:45.510Z,35.6
2017-05-10T12:16:04.159Z,35.6
2017-05-10T12:17:22.812Z,35.6
2017-05-10T12:18:41.493Z,35.6
2017-05-10T12:20:00.142Z,35.6
2017-05-10T12:21:18.817Z,35.6
2017-05-10T12:22:37.509Z,35.6
2017-05-10T12:23:56.158Z,35.6
2017-05-10T12:25:14.835Z,35.7
2017-05-10T12:26:33.482Z,35.7
2017-05-10T12:27:52.157Z,35.5
2017-05-10T12:29:10.805Z,35.5
2017-05-10T12:30:29.524Z,35.7
2017-05-10T12:31:48.175Z,35.8
2017-05-10T12:33:06.821Z,35.8
2017-05-10T12:34:25.514Z,35.9
2017-05-10T12:35:44.165Z,35.9
2017-05-10T12:37:02.861Z,35.9
2017-05-10T12:38:21.512Z,35.9
2017-05-10T12:39:40.163Z,35.9
2017-05-10T12:40:58.808Z,35.9
2017-05-10T12:42:17.450Z,36
2017-05-10T12:43:36.102Z,36
2017-05-10T12:44:54.771Z,36.1
2017-05-10T12:46:13.422Z,36
2017-05-10T12:47:32.127Z,36.1
2017-05-10T12:48:50.788Z,36.1
2017-05-10T12:50:09.531Z,36.2
2017-05-10T12:51:28.191Z,36.2
2017-05-10T12:52:46.885Z,36.2
2017-05-10T12:54:05.536Z,36.2
2017-05-10T12:55:24.240Z,36.1
2017-05-10T12:56:42.978Z,36.1
2017-05-10T12:58:01.631Z,36.1
2017-05-10T12:59:20.337Z,36
2017-05-10T13:00:38.986Z,36.1
2017-05-10T13:01:57.689Z,36.1
2017-05-10T13:03:16.372Z,36.1
2017-05-10T13:04:35.030Z,36.1
2017-05-10T13:05:53.688Z,36.1
2017-05-10T13:07:12.336Z,36.1
2017-05-10T13:08:31.026Z,36.1
2017-05-10T13:09:49.683Z,36.1
2017-05-10T13:11:08.330Z,36.2
2017-05-10T13:12:26.993Z,36.3
2017-05-10T13:13:45.640Z,36.3
2017-05-10T13:15:04.365Z,36.3
2017-05-10T13:16:23.069Z,36.3
2017-05-10T13:17:41.727Z,36.4
2017-05-10T13:19:00.434Z,36.4
2017-05-10T13:20:19.089Z,36.5
2017-05-10T13:21:37.800Z,36.5
2017-05-10T13:22:56.446Z,36.3
2017-05-10T13:24:15.102Z,36.3
2017-05-10T13:25:33.793Z,36.3
2017-05-10T13:26:52.470Z,36.3
2017-05-10T13:28:11.174Z,36.1
2017-05-10T13:29:29.863Z,36.1
2017-05-10T13:30:48.517Z,36.2
2017-05-10T13:32:07.165Z,36.3
2017-05-10T13:33:25.819Z,36.4
2017-05-10T13:34:44.497Z,36.5
2017-05-10T13:36:03.164Z,36.5
2017-05-10T13:37:21.823Z,36.5
2017-05-10T13:38:40.475Z,36.5
2017-05-10T13:39:59.118Z,36.4
2017-05-10T13:41:17.836Z,36.5
2017-05-10T13:42:36.489Z,36.3
2017-05-10T13:43:55.152Z,36.3
2017-05-10T13:45:13.840Z,36.3
2017-05-10T13:46:32.489Z,36.3
2017-05-10T13:47:51.155Z,36.3
2017-05-10T13:49:09.806Z,36.2
2017-05-10T13:50:28.462Z,36.1
2017-05-10T13:51:47.167Z,36.2
2017-05-10T13:53:05.841Z,36.3
2017-05-10T13:54:24.506Z,36.5
2017-05-10T13:55:43.149Z,36.5
2017-05-10T13:57:01.799Z,36.6
2017-05-10T13:58:20.466Z,36.6
2017-05-10T13:59:39.131Z,36.5
2017-05-10T14:00:57.826Z,36.4
2017-05-10T14:02:16.474Z,36.5
2017-05-10T14:03:35.128Z,36.5
2017-05-10T14:04:53.777Z,36.4
2017-05-10T14:06:12.423Z,36.4
2017-05-10T14:07:31.128Z,36.4
2017-05-10T14:08:49.805Z,36.4
2017-05-10T14:10:08.448Z,36.4
2017-05-10T14:11:27.100Z,36.5
2017-05-10T14:12:45.771Z,36.5
2017-05-10T14:14:04.467Z,36.5
2017-05-10T14:15:23.114Z,36.5
2017-05-10T14:16:41.760Z,36.5
2017-05-10T14:18:00.411Z,36.4
2017-05-10T14:19:19.093Z,36.5
2017-05-10T14:20:37.761Z,36.5
2017-05-10T14:21:56.416Z,36.5
2017-05-10T14:23:15.068Z,36.5
2017-05-10T14:24:33.787Z,36.6
2017-05-10T14:25:52.443Z,36.6
2017-05-10T14:27:11.146Z,36.6
2017-05-10T14:28:29.799Z,36.6
2017-05-10T14:29:48.500Z,36.4
2017-05-10T14:31:07.186Z,36.3
2017-05-10T14:32:25.891Z,36.3
2017-05-10T14:33:44.580Z,36.4
2017-05-10T14:35:03.260Z,36.4
2017-05-10T14:36:21.918Z,36.3
2017-05-10T14:37:40.601Z,35.8
2017-05-10T14:38:59.284Z,35.3
2017-05-10T14:40:17.965Z,34.9
2017-05-10T14:41:36.664Z,34.8
2017-05-10T14:42:55.312Z,34.7
2017-05-10T14:44:14.040Z,34.4
2017-05-10T14:45:32.696Z,33.3
2017-05-10T14:46:51.386Z,32.1
2017-05-10T14:48:10.055Z,30.8
2017-05-10T14:49:28.703Z,29.5
2017-05-10T14:50:47.352Z,29
2017-05-10T14:52:06.001Z,28.6
2017-05-10T14:53:24.662Z,28.8
2017-05-10T14:54:43.339Z,28.4
2017-05-10T14:56:02.018Z,28.4
2017-05-10T14:57:20.667Z,30.2
2017-05-10T14:58:39.320Z,31.3
2017-05-10T14:59:57.996Z,30.2
2017-05-10T15:01:16.703Z,29
2017-05-10T15:02:35.386Z,27.9
2017-05-10T15:03:54.118Z,27.7
2017-05-10T15:05:12.797Z,27.8
2017-05-10T15:06:31.445Z,26.7
2017-05-10T15:07:50.106Z,25.8
2017-05-10T15:09:08.757Z,25
2017-05-10T15:10:27.495Z,24
2017-05-10T15:11:46.148Z,23.4
2017-05-10T15:13:04.845Z,23
2017-05-10T15:14:23.492Z,22.7
2017-05-10T15:15:42.150Z,22.6
2017-05-10T15:17:00.799Z,22.2
2017-05-10T15:18:19.460Z,22
2017-05-10T15:19:38.105Z,21.6
2017-05-10T15:20:56.761Z,21.3
2017-05-10T15:22:15.420Z,21.1
2017-05-10T15:23:34.105Z,20.8
2017-05-10T15:24:52.770Z,20.8
2017-05-10T15:26:11.425Z,20.9
2017-05-10T15:27:30.132Z,20.9
2017-05-10T15:28:48.860Z,21.1
2017-05-10T15:30:07.565Z,21.2
2017-05-10T15:31:26.249Z,21.3
2017-05-10T15:32:44.906Z,21.2
2017-05-10T15:34:03.591Z,21.3
2017-05-10T15:35:22.318Z,21.4
2017-05-10T15:36:41.024Z,21.5
2017-05-10T15:37:59.682Z,21.6
2017-05-10T15:39:18.331Z,21.6
2017-05-10T15:40:36.989Z,21.6
2017-05-10T15:41:55.674Z,21.5
2017-05-10T15:43:14.330Z,21.5
2017-05-10T15:44:33.033Z,21.4
2017-05-10T15:45:51.690Z,21.4
2017-05-10T15:47:10.345Z,21.6
2017-05-10T15:48:29.011Z,21.6
2017-05-10T15:49:47.666Z,21.6
2017-05-10T15:51:06.341Z,21.6
2017-05-10T15:52:25.003Z,21.4
2017-05-10T15:53:43.669Z,21.1
2017-05-10T15:55:02.312Z,20.9
2017-05-10T15:56:21.013Z,20.9
2017-05-10T15:57:39.670Z,20.9
2017-05-10T15:58:58.387Z,20.9
2017-05-10T16:00:17.099Z,20.5
2017-05-10T16:01:35.749Z,20.4
2017-05-10T16:02:54.401Z,20.1
2017-05-10T16:04:13.082Z,19.9
2017-05-10T16:05:31.731Z,19.9
2017-05-10T16:06:50.381Z,20.1
2017-05-10T16:08:09.035Z,20.1
2017-05-10T16:09:27.685Z,20
2017-05-10T16:10:46.342Z,19.9
2017-05-10T16:12:05.050Z,19.8
2017-05-10T16:13:23.737Z,19.8
2017-05-10T16:14:42.453Z,19.6
2017-05-10T16:16:01.105Z,19.4
2017-05-10T16:17:19.755Z,19.4
2017-05-10T16:18:38.402Z,19.4
2017-05-10T16:19:57.120Z,19.4
2017-05-10T16:21:15.776Z,19.1
2017-05-10T16:22:34.421Z,18.8
2017-05-10T16:23:53.077Z,18.5
2017-05-10T16:25:11.728Z,18.5
2017-05-10T16:26:30.377Z,18.8
2017-05-10T16:27:49.053Z,20.1
2017-05-10T16:29:07.704Z,22.2
2017-05-10T16:30:26.400Z,23.9
2017-05-10T16:31:45.105Z,25.2
2017-05-10T16:33:03.784Z,26.4
2017-05-10T16:34:22.487Z,26.8
2017-05-10T16:35:41.148Z,25.2
2017-05-10T16:36:59.852Z,24
2017-05-10T16:38:18.531Z,25.3
2017-05-10T16:39:37.188Z,28.7
2017-05-10T16:40:55.847Z,30.9
2017-05-10T16:42:14.541Z,31.9
2017-05-10T16:43:33.182Z,31.6
2017-05-10T16:44:51.834Z,29.6
2017-05-10T16:46:10.518Z,28.1
2017-05-10T16:47:29.165Z,26
2017-05-10T16:48:47.901Z,23.5
2017-05-10T16:50:06.559Z,22.7
2017-05-10T16:51:25.210Z,23.5
2017-05-10T16:52:43.891Z,23.6
2017-05-10T16:54:02.542Z,23.8
2017-05-10T16:55:21.189Z,23.1
2017-05-10T16:56:39.848Z,22.5
2017-05-10T16:57:58.551Z,21.7
2017-05-10T16:59:17.202Z,20.7
2017-05-10T17:00:35.856Z,19.9
2017-05-10T17:01:54.582Z,19.3
2017-05-10T17:03:13.241Z,18.7
2017-05-10T17:04:31.988Z,18.3
2017-05-10T17:05:50.692Z,18
2017-05-10T17:07:09.343Z,17.8
2017-05-10T17:08:27.997Z,17.6
2017-05-10T17:09:46.649Z,17.4
2017-05-10T17:11:05.354Z,17.2
2017-05-10T17:12:24.010Z,17.1
2017-05-10T17:13:42.669Z,17.1
2017-05-10T17:15:01.345Z,17
2017-05-10T17:16:20.018Z,18.3
2017-05-10T17:17:38.759Z,22.7
2017-05-10T17:18:57.513Z,26.4
2017-05-10T17:20:16.241Z,28.6
2017-05-10T17:21:35.028Z,30.2
2017-05-10T17:22:53.806Z,31.3
2017-05-10T17:24:12.570Z,32
2017-05-10T17:25:31.365Z,32.8
2017-05-10T17:26:50.154Z,33
2017-05-10T17:28:08.926Z,32.7
2017-05-10T17:29:27.676Z,30.2
2017-05-10T17:30:46.418Z,26.5
2017-05-10T17:32:05.216Z,24
2017-05-10T17:33:23.982Z,21.8
2017-05-10T17:34:42.720Z,20.6
2017-05-10T17:36:01.469Z,19.6
2017-05-10T17:37:20.206Z,18.8
2017-05-10T17:38:38.991Z,18.3
2017-05-10T17:39:57.768Z,17.9
2017-05-10T17:41:16.522Z,17.5
2017-05-10T17:42:35.284Z,17.1
2017-05-10T17:43:54.069Z,16.9
2017-05-10T17:45:12.813Z,16.7
2017-05-10T17:46:31.551Z,16.5
2017-05-10T17:47:50.301Z,16.2